sensor_id;sensor_type;location;lat;lon;timestamp;P1;durP1;ratioP1;P2;durP2;ratioP2
60867;SDS011;46702;48.370;10.794;2024-02-21T00:02:20;6.22;;;3.38;;
60867;SDS011;46702;48.370;10.794;2024-02-21T00:04:46;4.53;;;3.47;;
60867;SDS011;46702;48.370;10.794;2024-02-21T00:07:12;4.65;;;3.28;;
60867;SDS011;46702;48.370;10.794;2024-02-21T00:09:38;4.55;;;3.50;;
60867;SDS011;46702;48.370;10.794;2024-02-21T00:12:04;5.85;;;3.10;;
60867;SDS011;46702;48.370;10.794;2024-02-21T00:14:30;7.88;;;3.42;;
60867;SDS011;46702;48.370;10.794;2024-02-21T00:16:56;3.38;;;2.97;;
60867;SDS011;46702;48.370;10.794;2024-02-21T00:19:22;3.60;;;2.78;;
60867;SDS011;46702;48.370;10.794;2024-02-21T00:21:48;3.13;;;2.83;;
60867;SDS011;46702;48.370;10.794;2024-02-21T00:24:13;4.70;;;3.15;;
60867;SDS011;46702;48.370;10.794;2024-02-21T00:26:39;4.65;;;2.65;;
60867;SDS011;46702;48.370;10.794;2024-02-21T00:29:05;3.70;;;2.72;;
60867;SDS011;46702;48.370;10.794;2024-02-21T00:31:30;6.38;;;3.40;;
60867;SDS011;46702;48.370;10.794;2024-02-21T00:33:57;4.65;;;3.05;;
60867;SDS011;46702;48.370;10.794;2024-02-21T00:36:23;6.68;;;2.83;;
60867;SDS011;46702;48.370;10.794;2024-02-21T00:38:49;3.78;;;2.50;;
60867;SDS011;46702;48.370;10.794;2024-02-21T00:41:14;5.28;;;3.00;;
60867;SDS011;46702;48.370;10.794;2024-02-21T00:43:41;8.75;;;3.35;;
60867;SDS011;46702;48.370;10.794;2024-02-21T00:46:07;3.92;;;2.72;;
60867;SDS011;46702;48.370;10.794;2024-02-21T00:48:33;4.65;;;2.78;;
60867;SDS011;46702;48.370;10.794;2024-02-21T00:50:59;4.50;;;2.85;;
60867;SDS011;46702;48.370;10.794;2024-02-21T00:53:25;4.13;;;2.88;;
60867;SDS011;46702;48.370;10.794;2024-02-21T00:55:51;5.40;;;3.15;;
60867;SDS011;46702;48.370;10.794;2024-02-21T00:58:22;6.72;;;3.50;;
60867;SDS011;46702;48.370;10.794;2024-02-21T01:00:47;3.53;;;2.97;;
60867;SDS011;46702;48.370;10.794;2024-02-21T01:03:13;5.40;;;3.50;;
60867;SDS011;46702;48.370;10.794;2024-02-21T01:05:39;6.13;;;3.20;;
60867;SDS011;46702;48.370;10.794;2024-02-21T01:08:05;4.93;;;3.15;;
60867;SDS011;46702;48.370;10.794;2024-02-21T01:10:31;5.03;;;3.35;;
60867;SDS011;46702;48.370;10.794;2024-02-21T01:12:57;7.32;;;3.42;;
60867;SDS011;46702;48.370;10.794;2024-02-21T01:15:23;4.65;;;2.47;;
60867;SDS011;46702;48.370;10.794;2024-02-21T01:17:49;11.35;;;4.20;;
60867;SDS011;46702;48.370;10.794;2024-02-21T01:20:19;56.67;;;18.10;;
60867;SDS011;46702;48.370;10.794;2024-02-21T01:22:46;49.53;;;17.77;;
60867;SDS011;46702;48.370;10.794;2024-02-21T01:25:12;36.88;;;13.60;;
60867;SDS011;46702;48.370;10.794;2024-02-21T01:27:37;50.90;;;19.35;;
60867;SDS011;46702;48.370;10.794;2024-02-21T01:30:04;93.95;;;28.13;;
60867;SDS011;46702;48.370;10.794;2024-02-21T01:32:31;143.45;;;45.70;;
60867;SDS011;46702;48.370;10.794;2024-02-21T01:34:57;109.63;;;36.63;;
60867;SDS011;46702;48.370;10.794;2024-02-21T01:37:23;75.47;;;24.80;;
60867;SDS011;46702;48.370;10.794;2024-02-21T01:39:49;21.02;;;8.35;;
60867;SDS011;46702;48.370;10.794;2024-02-21T01:42:15;27.13;;;8.93;;
60867;SDS011;46702;48.370;10.794;2024-02-21T01:44:41;4.35;;;3.90;;
60867;SDS011;46702;48.370;10.794;2024-02-21T01:47:07;12.27;;;4.78;;
60867;SDS011;46702;48.370;10.794;2024-02-21T01:49:33;12.35;;;4.80;;
60867;SDS011;46702;48.370;10.794;2024-02-21T01:51:59;8.40;;;4.60;;
60867;SDS011;46702;48.370;10.794;2024-02-21T01:54:26;7.82;;;3.33;;
60867;SDS011;46702;48.370;10.794;2024-02-21T01:56:53;15.23;;;6.38;;
60867;SDS011;46702;48.370;10.794;2024-02-21T01:59:20;19.50;;;6.63;;
60867;SDS011;46702;48.370;10.794;2024-02-21T02:01:47;6.22;;;3.00;;
60867;SDS011;46702;48.370;10.794;2024-02-21T02:04:15;4.30;;;2.05;;
60867;SDS011;46702;48.370;10.794;2024-02-21T02:06:41;8.73;;;2.95;;
60867;SDS011;46702;48.370;10.794;2024-02-21T02:09:07;11.23;;;5.00;;
60867;SDS011;46702;48.370;10.794;2024-02-21T02:11:33;6.20;;;3.40;;
60867;SDS011;46702;48.370;10.794;2024-02-21T02:13:59;12.30;;;4.65;;
60867;SDS011;46702;48.370;10.794;2024-02-21T02:19:15;11.02;;;3.72;;
60867;SDS011;46702;48.370;10.794;2024-02-21T02:21:42;13.07;;;3.45;;
60867;SDS011;46702;48.370;10.794;2024-02-21T02:24:18;8.35;;;2.95;;
60867;SDS011;46702;48.370;10.794;2024-02-21T02:26:45;5.68;;;3.08;;
60867;SDS011;46702;48.370;10.794;2024-02-21T02:29:10;13.07;;;5.43;;
60867;SDS011;46702;48.370;10.794;2024-02-21T02:31:36;48.58;;;14.70;;
60867;SDS011;46702;48.370;10.794;2024-02-21T02:34:03;41.00;;;12.65;;
60867;SDS011;46702;48.370;10.794;2024-02-21T02:36:31;123.15;;;37.90;;
60867;SDS011;46702;48.370;10.794;2024-02-21T02:39:00;111.13;;;35.42;;
60867;SDS011;46702;48.370;10.794;2024-02-21T02:41:26;99.82;;;32.53;;
60867;SDS011;46702;48.370;10.794;2024-02-21T02:43:52;96.82;;;29.42;;
60867;SDS011;46702;48.370;10.794;2024-02-21T02:46:18;61.55;;;19.35;;
60867;SDS011;46702;48.370;10.794;2024-02-21T02:48:43;42.80;;;14.77;;
60867;SDS011;46702;48.370;10.794;2024-02-21T02:51:10;26.30;;;11.18;;
60867;SDS011;46702;48.370;10.794;2024-02-21T02:53:36;16.52;;;6.78;;
60867;SDS011;46702;48.370;10.794;2024-02-21T02:56:01;11.77;;;5.45;;
60867;SDS011;46702;48.370;10.794;2024-02-21T02:58:27;11.40;;;4.35;;
60867;SDS011;46702;48.370;10.794;2024-02-21T03:00:53;5.05;;;3.40;;
60867;SDS011;46702;48.370;10.794;2024-02-21T03:03:20;6.68;;;3.63;;
60867;SDS011;46702;48.370;10.794;2024-02-21T03:05:45;3.47;;;3.17;;
60867;SDS011;46702;48.370;10.794;2024-02-21T03:08:11;4.82;;;3.15;;
60867;SDS011;46702;48.370;10.794;2024-02-21T03:10:37;6.22;;;3.15;;
60867;SDS011;46702;48.370;10.794;2024-02-21T03:13:03;3.83;;;3.20;;
60867;SDS011;46702;48.370;10.794;2024-02-21T03:15:29;6.45;;;2.70;;
60867;SDS011;46702;48.370;10.794;2024-02-21T03:17:55;3.97;;;2.38;;
60867;SDS011;46702;48.370;10.794;2024-02-21T03:20:22;3.17;;;2.65;;
60867;SDS011;46702;48.370;10.794;2024-02-21T03:22:48;13.52;;;6.82;;
60867;SDS011;46702;48.370;10.794;2024-02-21T03:25:14;32.75;;;18.00;;
60867;SDS011;46702;48.370;10.794;2024-02-21T03:27:40;26.48;;;14.45;;
60867;SDS011;46702;48.370;10.794;2024-02-21T03:30:06;25.02;;;13.90;;
60867;SDS011;46702;48.370;10.794;2024-02-21T03:32:32;15.23;;;8.65;;
60867;SDS011;46702;48.370;10.794;2024-02-21T03:34:58;11.57;;;6.28;;
60867;SDS011;46702;48.370;10.794;2024-02-21T03:37:24;7.70;;;4.72;;
60867;SDS011;46702;48.370;10.794;2024-02-21T03:39:50;6.90;;;3.65;;
60867;SDS011;46702;48.370;10.794;2024-02-21T03:42:16;4.82;;;3.05;;
60867;SDS011;46702;48.370;10.794;2024-02-21T03:44:42;7.05;;;3.40;;
60867;SDS011;46702;48.370;10.794;2024-02-21T03:47:08;4.60;;;2.50;;
60867;SDS011;46702;48.370;10.794;2024-02-21T03:49:36;5.75;;;2.03;;
60867;SDS011;46702;48.370;10.794;2024-02-21T03:52:02;3.30;;;2.40;;
60867;SDS011;46702;48.370;10.794;2024-02-21T03:54:28;5.13;;;2.67;;
60867;SDS011;46702;48.370;10.794;2024-02-21T03:56:54;5.68;;;3.42;;
60867;SDS011;46702;48.370;10.794;2024-02-21T03:59:20;2.08;;;1.88;;
60867;SDS011;46702;48.370;10.794;2024-02-21T04:01:51;4.72;;;2.65;;
60867;SDS011;46702;48.370;10.794;2024-02-21T04:04:17;3.88;;;1.98;;
60867;SDS011;46702;48.370;10.794;2024-02-21T04:06:49;2.60;;;2.17;;
60867;SDS011;46702;48.370;10.794;2024-02-21T04:09:16;7.55;;;2.35;;
60867;SDS011;46702;48.370;10.794;2024-02-21T04:11:42;3.95;;;1.95;;
60867;SDS011;46702;48.370;10.794;2024-02-21T04:14:08;4.72;;;2.20;;
60867;SDS011;46702;48.370;10.794;2024-02-21T04:16:34;8.05;;;2.65;;
60867;SDS011;46702;48.370;10.794;2024-02-21T04:19:00;3.75;;;2.30;;
60867;SDS011;46702;48.370;10.794;2024-02-21T04:21:27;3.88;;;2.47;;
60867;SDS011;46702;48.370;10.794;2024-02-21T04:23:53;4.68;;;2.30;;
60867;SDS011;46702;48.370;10.794;2024-02-21T04:26:18;3.90;;;2.75;;
60867;SDS011;46702;48.370;10.794;2024-02-21T04:28:45;3.97;;;2.45;;
60867;SDS011;46702;48.370;10.794;2024-02-21T04:31:11;5.03;;;2.35;;
60867;SDS011;46702;48.370;10.794;2024-02-21T04:33:36;3.42;;;2.47;;
60867;SDS011;46702;48.370;10.794;2024-02-21T04:36:02;3.20;;;2.13;;
60867;SDS011;46702;48.370;10.794;2024-02-21T04:38:29;6.97;;;2.63;;
60867;SDS011;46702;48.370;10.794;2024-02-21T04:40:55;5.78;;;2.58;;
60867;SDS011;46702;48.370;10.794;2024-02-21T04:43:23;3.50;;;2.13;;
60867;SDS011;46702;48.370;10.794;2024-02-21T04:45:50;3.53;;;2.47;;
60867;SDS011;46702;48.370;10.794;2024-02-21T04:48:18;4.10;;;2.65;;
60867;SDS011;46702;48.370;10.794;2024-02-21T04:50:44;3.28;;;2.50;;
60867;SDS011;46702;48.370;10.794;2024-02-21T04:53:10;5.88;;;2.28;;
60867;SDS011;46702;48.370;10.794;2024-02-21T04:55:36;4.43;;;2.15;;
60867;SDS011;46702;48.370;10.794;2024-02-21T04:58:02;6.78;;;2.38;;
60867;SDS011;46702;48.370;10.794;2024-02-21T05:00:28;3.53;;;2.40;;
60867;SDS011;46702;48.370;10.794;2024-02-21T05:02:54;4.10;;;2.05;;
60867;SDS011;46702;48.370;10.794;2024-02-21T05:05:19;3.55;;;2.05;;
60867;SDS011;46702;48.370;10.794;2024-02-21T05:07:45;1.88;;;1.70;;
60867;SDS011;46702;48.370;10.794;2024-02-21T05:10:13;2.58;;;1.45;;
60867;SDS011;46702;48.370;10.794;2024-02-21T05:12:39;2.38;;;1.90;;
60867;SDS011;46702;48.370;10.794;2024-02-21T05:15:05;5.20;;;2.20;;
60867;SDS011;46702;48.370;10.794;2024-02-21T05:17:31;2.90;;;1.90;;
60867;SDS011;46702;48.370;10.794;2024-02-21T05:19:57;2.72;;;1.80;;
60867;SDS011;46702;48.370;10.794;2024-02-21T05:22:23;1.52;;;1.42;;
60867;SDS011;46702;48.370;10.794;2024-02-21T05:24:48;2.92;;;2.00;;
60867;SDS011;46702;48.370;10.794;2024-02-21T05:27:14;3.55;;;1.80;;
60867;SDS011;46702;48.370;10.794;2024-02-21T05:29:40;2.28;;;1.60;;
60867;SDS011;46702;48.370;10.794;2024-02-21T05:32:05;2.35;;;1.80;;
60867;SDS011;46702;48.370;10.794;2024-02-21T05:34:31;2.10;;;1.90;;
60867;SDS011;46702;48.370;10.794;2024-02-21T05:36:57;2.95;;;1.60;;
60867;SDS011;46702;48.370;10.794;2024-02-21T05:39:24;1.40;;;1.30;;
60867;SDS011;46702;48.370;10.794;2024-02-21T05:41:50;2.00;;;1.88;;
60867;SDS011;46702;48.370;10.794;2024-02-21T05:44:16;2.28;;;2.08;;
60867;SDS011;46702;48.370;10.794;2024-02-21T05:46:42;2.85;;;2.08;;
60867;SDS011;46702;48.370;10.794;2024-02-21T05:49:08;2.33;;;1.98;;
60867;SDS011;46702;48.370;10.794;2024-02-21T05:51:34;5.93;;;1.90;;
60867;SDS011;46702;48.370;10.794;2024-02-21T05:54:00;4.35;;;2.42;;
60867;SDS011;46702;48.370;10.794;2024-02-21T05:56:26;2.15;;;1.63;;
60867;SDS011;46702;48.370;10.794;2024-02-21T05:58:53;2.67;;;1.60;;
60867;SDS011;46702;48.370;10.794;2024-02-21T06:01:19;2.47;;;1.58;;
60867;SDS011;46702;48.370;10.794;2024-02-21T06:03:46;2.38;;;2.08;;
60867;SDS011;46702;48.370;10.794;2024-02-21T06:06:12;4.68;;;2.30;;
60867;SDS011;46702;48.370;10.794;2024-02-21T06:08:39;2.60;;;1.55;;
60867;SDS011;46702;48.370;10.794;2024-02-21T06:11:05;2.03;;;1.80;;
60867;SDS011;46702;48.370;10.794;2024-02-21T06:13:31;1.45;;;1.42;;
60867;SDS011;46702;48.370;10.794;2024-02-21T06:15:56;2.55;;;2.10;;
60867;SDS011;46702;48.370;10.794;2024-02-21T06:18:22;2.58;;;1.67;;
60867;SDS011;46702;48.370;10.794;2024-02-21T06:20:48;2.13;;;1.55;;
60867;SDS011;46702;48.370;10.794;2024-02-21T06:23:15;3.20;;;1.65;;
60867;SDS011;46702;48.370;10.794;2024-02-21T06:25:44;3.80;;;1.73;;
60867;SDS011;46702;48.370;10.794;2024-02-21T06:28:11;3.78;;;1.65;;
60867;SDS011;46702;48.370;10.794;2024-02-21T06:30:36;2.75;;;1.63;;
60867;SDS011;46702;48.370;10.794;2024-02-21T06:33:02;3.80;;;1.83;;
60867;SDS011;46702;48.370;10.794;2024-02-21T06:35:28;4.70;;;2.20;;
60867;SDS011;46702;48.370;10.794;2024-02-21T06:37:54;3.03;;;1.80;;
60867;SDS011;46702;48.370;10.794;2024-02-21T06:40:22;3.28;;;1.83;;
60867;SDS011;46702;48.370;10.794;2024-02-21T06:42:48;1.60;;;1.50;;
60867;SDS011;46702;48.370;10.794;2024-02-21T06:45:14;1.88;;;1.77;;
60867;SDS011;46702;48.370;10.794;2024-02-21T06:47:41;3.67;;;1.75;;
60867;SDS011;46702;48.370;10.794;2024-02-21T06:50:07;3.25;;;1.55;;
60867;SDS011;46702;48.370;10.794;2024-02-21T06:52:33;6.40;;;1.80;;
60867;SDS011;46702;48.370;10.794;2024-02-21T06:54:59;8.15;;;1.92;;
60867;SDS011;46702;48.370;10.794;2024-02-21T06:57:25;5.95;;;3.20;;
60867;SDS011;46702;48.370;10.794;2024-02-21T06:59:51;3.28;;;2.38;;
60867;SDS011;46702;48.370;10.794;2024-02-21T07:02:17;4.70;;;2.58;;
60867;SDS011;46702;48.370;10.794;2024-02-21T07:04:43;4.88;;;2.40;;
60867;SDS011;46702;48.370;10.794;2024-02-21T07:07:09;4.38;;;2.45;;
60867;SDS011;46702;48.370;10.794;2024-02-21T07:09:35;2.00;;;1.80;;
60867;SDS011;46702;48.370;10.794;2024-02-21T07:12:01;4.38;;;2.00;;
60867;SDS011;46702;48.370;10.794;2024-02-21T07:14:28;1.90;;;1.58;;
60867;SDS011;46702;48.370;10.794;2024-02-21T07:16:54;5.22;;;2.38;;
60867;SDS011;46702;48.370;10.794;2024-02-21T07:19:22;4.43;;;1.73;;
60867;SDS011;46702;48.370;10.794;2024-02-21T07:21:47;4.28;;;2.00;;
60867;SDS011;46702;48.370;10.794;2024-02-21T07:24:13;3.10;;;1.67;;
60867;SDS011;46702;48.370;10.794;2024-02-21T07:26:42;2.17;;;1.73;;
60867;SDS011;46702;48.370;10.794;2024-02-21T07:29:09;1.55;;;1.42;;
60867;SDS011;46702;48.370;10.794;2024-02-21T07:31:41;1.60;;;1.50;;
60867;SDS011;46702;48.370;10.794;2024-02-21T07:34:08;4.13;;;1.63;;
60867;SDS011;46702;48.370;10.794;2024-02-21T07:36:34;2.90;;;1.48;;
60867;SDS011;46702;48.370;10.794;2024-02-21T07:39:00;1.80;;;1.70;;
60867;SDS011;46702;48.370;10.794;2024-02-21T07:41:26;3.58;;;1.80;;
60867;SDS011;46702;48.370;10.794;2024-02-21T07:43:52;1.70;;;1.60;;
60867;SDS011;46702;48.370;10.794;2024-02-21T07:46:18;4.22;;;2.20;;
60867;SDS011;46702;48.370;10.794;2024-02-21T07:48:45;3.28;;;1.83;;
60867;SDS011;46702;48.370;10.794;2024-02-21T07:51:11;2.40;;;1.98;;
60867;SDS011;46702;48.370;10.794;2024-02-21T07:53:38;2.63;;;1.77;;
60867;SDS011;46702;48.370;10.794;2024-02-21T07:56:07;2.00;;;1.42;;
60867;SDS011;46702;48.370;10.794;2024-02-21T07:58:33;1.80;;;1.50;;
60867;SDS011;46702;48.370;10.794;2024-02-21T08:00:58;2.08;;;1.73;;
60867;SDS011;46702;48.370;10.794;2024-02-21T08:03:24;1.55;;;1.42;;
60867;SDS011;46702;48.370;10.794;2024-02-21T08:05:50;2.78;;;1.83;;
60867;SDS011;46702;48.370;10.794;2024-02-21T08:08:16;0.82;;;0.73;;
60867;SDS011;46702;48.370;10.794;2024-02-21T08:13:10;1.38;;;1.27;;
60867;SDS011;46702;48.370;10.794;2024-02-21T08:15:36;1.50;;;1.40;;
60867;SDS011;46702;48.370;10.794;2024-02-21T08:18:04;2.53;;;1.60;;
60867;SDS011;46702;48.370;10.794;2024-02-21T08:20:30;4.47;;;1.75;;
60867;SDS011;46702;48.370;10.794;2024-02-21T08:22:55;2.30;;;1.42;;
60867;SDS011;46702;48.370;10.794;2024-02-21T08:25:21;0.85;;;0.85;;
60867;SDS011;46702;48.370;10.794;2024-02-21T08:27:46;1.48;;;1.38;;
60867;SDS011;46702;48.370;10.794;2024-02-21T08:30:12;1.90;;;0.90;;
60867;SDS011;46702;48.370;10.794;2024-02-21T08:32:38;1.40;;;1.30;;
60867;SDS011;46702;48.370;10.794;2024-02-21T08:35:04;1.17;;;1.08;;
60867;SDS011;46702;48.370;10.794;2024-02-21T08:37:30;0.80;;;0.80;;
60867;SDS011;46702;48.370;10.794;2024-02-21T08:39:56;2.53;;;1.25;;
60867;SDS011;46702;48.370;10.794;2024-02-21T08:42:21;1.08;;;1.08;;
60867;SDS011;46702;48.370;10.794;2024-02-21T08:44:47;1.63;;;1.52;;
60867;SDS011;46702;48.370;10.794;2024-02-21T08:47:13;0.90;;;0.90;;
60867;SDS011;46702;48.370;10.794;2024-02-21T08:49:38;0.95;;;0.95;;
60867;SDS011;46702;48.370;10.794;2024-02-21T08:52:04;1.42;;;1.00;;
60867;SDS011;46702;48.370;10.794;2024-02-21T08:54:30;0.98;;;0.90;;
60867;SDS011;46702;48.370;10.794;2024-02-21T08:56:57;1.95;;;1.23;;
60867;SDS011;46702;48.370;10.794;2024-02-21T08:59:23;1.92;;;1.27;;
60867;SDS011;46702;48.370;10.794;2024-02-21T09:01:50;2.28;;;0.90;;
60867;SDS011;46702;48.370;10.794;2024-02-21T09:04:17;0.45;;;0.45;;
60867;SDS011;46702;48.370;10.794;2024-02-21T09:06:43;1.98;;;1.00;;
60867;SDS011;46702;48.370;10.794;2024-02-21T09:09:10;0.73;;;0.73;;
60867;SDS011;46702;48.370;10.794;2024-02-21T09:11:35;0.90;;;0.90;;
60867;SDS011;46702;48.370;10.794;2024-02-21T09:14:01;1.40;;;0.77;;
60867;SDS011;46702;48.370;10.794;2024-02-21T09:16:30;0.80;;;0.80;;
60867;SDS011;46702;48.370;10.794;2024-02-21T09:18:57;0.88;;;0.88;;
60867;SDS011;46702;48.370;10.794;2024-02-21T09:21:22;0.75;;;0.75;;
60867;SDS011;46702;48.370;10.794;2024-02-21T09:23:48;2.10;;;0.95;;
60867;SDS011;46702;48.370;10.794;2024-02-21T09:26:14;0.80;;;0.80;;
60867;SDS011;46702;48.370;10.794;2024-02-21T09:28:42;1.63;;;1.20;;
60867;SDS011;46702;48.370;10.794;2024-02-21T09:31:08;0.55;;;0.50;;
60867;SDS011;46702;48.370;10.794;2024-02-21T09:33:33;0.80;;;0.80;;
60867;SDS011;46702;48.370;10.794;2024-02-21T09:35:59;0.82;;;0.82;;
60867;SDS011;46702;48.370;10.794;2024-02-21T09:38:25;2.58;;;1.13;;
60867;SDS011;46702;48.370;10.794;2024-02-21T09:41:33;0.88;;;0.65;;
60867;SDS011;46702;48.370;10.794;2024-02-21T09:44:00;4.45;;;1.23;;
60867;SDS011;46702;48.370;10.794;2024-02-21T09:46:45;1.65;;;1.55;;
60867;SDS011;46702;48.370;10.794;2024-02-21T09:49:31;1.30;;;0.90;;
60867;SDS011;46702;48.370;10.794;2024-02-21T09:52:04;1.30;;;1.20;;
60867;SDS011;46702;48.370;10.794;2024-02-21T09:54:34;1.77;;;1.30;;
60867;SDS011;46702;48.370;10.794;2024-02-21T09:57:00;0.57;;;0.55;;
60867;SDS011;46702;48.370;10.794;2024-02-21T09:59:27;0.98;;;0.90;;
60867;SDS011;46702;48.370;10.794;2024-02-21T10:01:53;1.00;;;1.00;;
60867;SDS011;46702;48.370;10.794;2024-02-21T10:04:19;2.85;;;1.02;;
60867;SDS011;46702;48.370;10.794;2024-02-21T10:06:45;4.18;;;1.10;;
60867;SDS011;46702;48.370;10.794;2024-02-21T10:09:24;1.05;;;1.00;;
60867;SDS011;46702;48.370;10.794;2024-02-21T10:11:52;0.80;;;0.80;;
60867;SDS011;46702;48.370;10.794;2024-02-21T10:14:19;1.67;;;1.00;;
60867;SDS011;46702;48.370;10.794;2024-02-21T10:16:46;1.88;;;1.00;;
60867;SDS011;46702;48.370;10.794;2024-02-21T10:19:17;0.98;;;0.90;;
60867;SDS011;46702;48.370;10.794;2024-02-21T10:21:43;1.25;;;1.20;;
60867;SDS011;46702;48.370;10.794;2024-02-21T10:24:10;0.85;;;0.85;;
60867;SDS011;46702;48.370;10.794;2024-02-21T10:26:37;1.10;;;1.00;;
60867;SDS011;46702;48.370;10.794;2024-02-21T10:29:03;0.50;;;0.50;;
60867;SDS011;46702;48.370;10.794;2024-02-21T10:31:29;1.25;;;0.98;;
60867;SDS011;46702;48.370;10.794;2024-02-21T10:34:01;1.35;;;1.10;;
60867;SDS011;46702;48.370;10.794;2024-02-21T10:36:30;1.33;;;0.70;;
60867;SDS011;46702;48.370;10.794;2024-02-21T10:38:56;1.40;;;0.93;;
60867;SDS011;46702;48.370;10.794;2024-02-21T10:41:22;1.45;;;0.73;;
60867;SDS011;46702;48.370;10.794;2024-02-21T10:43:53;0.50;;;0.50;;
60867;SDS011;46702;48.370;10.794;2024-02-21T10:46:20;1.27;;;0.73;;
60867;SDS011;46702;48.370;10.794;2024-02-21T10:48:47;2.13;;;1.00;;
60867;SDS011;46702;48.370;10.794;2024-02-21T10:51:21;3.13;;;1.05;;
60867;SDS011;46702;48.370;10.794;2024-02-21T10:56:57;0.85;;;0.70;;
60867;SDS011;46702;48.370;10.794;2024-02-21T11:01:52;0.68;;;0.55;;
60867;SDS011;46702;48.370;10.794;2024-02-21T11:04:17;2.25;;;0.82;;
60867;SDS011;46702;48.370;10.794;2024-02-21T11:06:44;1.23;;;0.75;;
60867;SDS011;46702;48.370;10.794;2024-02-21T11:09:10;0.40;;;0.40;;
60867;SDS011;46702;48.370;10.794;2024-02-21T11:11:55;1.38;;;0.55;;
60867;SDS011;46702;48.370;10.794;2024-02-21T11:14:21;0.73;;;0.73;;
60867;SDS011;46702;48.370;10.794;2024-02-21T11:16:47;0.85;;;0.52;;
60867;SDS011;46702;48.370;10.794;2024-02-21T11:19:22;0.50;;;0.50;;
60867;SDS011;46702;48.370;10.794;2024-02-21T11:21:52;0.52;;;0.52;;
60867;SDS011;46702;48.370;10.794;2024-02-21T11:24:29;0.45;;;0.45;;
60867;SDS011;46702;48.370;10.794;2024-02-21T11:29:33;0.60;;;0.60;;
60867;SDS011;46702;48.370;10.794;2024-02-21T11:32:06;0.40;;;0.40;;
60867;SDS011;46702;48.370;10.794;2024-02-21T11:34:36;0.63;;;0.63;;
60867;SDS011;46702;48.370;10.794;2024-02-21T11:37:02;1.10;;;0.80;;
60867;SDS011;46702;48.370;10.794;2024-02-21T11:39:37;0.80;;;0.80;;
60867;SDS011;46702;48.370;10.794;2024-02-21T11:42:05;0.80;;;0.68;;
60867;SDS011;46702;48.370;10.794;2024-02-21T11:46:59;0.50;;;0.50;;
60867;SDS011;46702;48.370;10.794;2024-02-21T11:49:31;0.47;;;0.47;;
60867;SDS011;46702;48.370;10.794;2024-02-21T11:52:02;0.70;;;0.70;;
60867;SDS011;46702;48.370;10.794;2024-02-21T11:54:32;0.98;;;0.68;;
60867;SDS011;46702;48.370;10.794;2024-02-21T11:56:58;0.85;;;0.85;;
60867;SDS011;46702;48.370;10.794;2024-02-21T11:59:25;0.50;;;0.50;;
60867;SDS011;46702;48.370;10.794;2024-02-21T12:01:52;1.45;;;0.98;;
60867;SDS011;46702;48.370;10.794;2024-02-21T12:04:18;0.77;;;0.77;;
60867;SDS011;46702;48.370;10.794;2024-02-21T12:06:45;0.80;;;0.70;;
60867;SDS011;46702;48.370;10.794;2024-02-21T12:09:14;1.67;;;0.88;;
60867;SDS011;46702;48.370;10.794;2024-02-21T12:11:44;1.02;;;0.90;;
60867;SDS011;46702;48.370;10.794;2024-02-21T12:14:11;0.93;;;0.80;;
60867;SDS011;46702;48.370;10.794;2024-02-21T12:16:41;0.82;;;0.75;;
60867;SDS011;46702;48.370;10.794;2024-02-21T12:19:09;5.78;;;1.00;;
60867;SDS011;46702;48.370;10.794;2024-02-21T12:21:35;1.17;;;0.85;;
60867;SDS011;46702;48.370;10.794;2024-02-21T12:24:13;0.63;;;0.63;;
60867;SDS011;46702;48.370;10.794;2024-02-21T12:26:43;2.03;;;0.82;;
60867;SDS011;46702;48.370;10.794;2024-02-21T12:29:08;0.95;;;0.73;;
60867;SDS011;46702;48.370;10.794;2024-02-21T12:31:37;0.90;;;0.88;;
60867;SDS011;46702;48.370;10.794;2024-02-21T12:34:04;0.60;;;0.60;;
60867;SDS011;46702;48.370;10.794;2024-02-21T12:36:33;0.93;;;0.63;;
60867;SDS011;46702;48.370;10.794;2024-02-21T12:38:59;1.92;;;0.82;;
60867;SDS011;46702;48.370;10.794;2024-02-21T12:41:26;1.20;;;0.63;;
60867;SDS011;46702;48.370;10.794;2024-02-21T12:43:53;0.80;;;0.80;;
60867;SDS011;46702;48.370;10.794;2024-02-21T12:46:19;1.00;;;0.73;;
60867;SDS011;46702;48.370;10.794;2024-02-21T12:48:44;0.85;;;0.82;;
60867;SDS011;46702;48.370;10.794;2024-02-21T12:51:10;1.83;;;0.70;;
60867;SDS011;46702;48.370;10.794;2024-02-21T12:53:36;2.13;;;0.77;;
60867;SDS011;46702;48.370;10.794;2024-02-21T12:56:01;0.82;;;0.70;;
60867;SDS011;46702;48.370;10.794;2024-02-21T12:58:27;0.60;;;0.60;;
60867;SDS011;46702;48.370;10.794;2024-02-21T13:00:56;1.27;;;0.57;;
60867;SDS011;46702;48.370;10.794;2024-02-21T13:03:22;1.00;;;0.70;;
60867;SDS011;46702;48.370;10.794;2024-02-21T13:05:48;1.85;;;1.25;;
60867;SDS011;46702;48.370;10.794;2024-02-21T13:08:13;1.20;;;1.02;;
60867;SDS011;46702;48.370;10.794;2024-02-21T13:10:39;1.02;;;0.90;;
60867;SDS011;46702;48.370;10.794;2024-02-21T13:13:05;0.50;;;0.50;;
60867;SDS011;46702;48.370;10.794;2024-02-21T13:15:30;0.70;;;0.60;;
60867;SDS011;46702;48.370;10.794;2024-02-21T13:17:56;0.65;;;0.65;;
60867;SDS011;46702;48.370;10.794;2024-02-21T13:20:25;1.15;;;0.50;;
60867;SDS011;46702;48.370;10.794;2024-02-21T13:22:53;0.40;;;0.40;;
60867;SDS011;46702;48.370;10.794;2024-02-21T13:25:22;0.70;;;0.70;;
60867;SDS011;46702;48.370;10.794;2024-02-21T13:27:47;0.63;;;0.63;;
60867;SDS011;46702;48.370;10.794;2024-02-21T13:30:14;1.23;;;0.80;;
60867;SDS011;46702;48.370;10.794;2024-02-21T13:32:59;0.85;;;0.80;;
60867;SDS011;46702;48.370;10.794;2024-02-21T13:35:25;0.73;;;0.73;;
60867;SDS011;46702;48.370;10.794;2024-02-21T13:37:50;1.00;;;0.80;;
60867;SDS011;46702;48.370;10.794;2024-02-21T13:40:16;1.35;;;0.73;;
60867;SDS011;46702;48.370;10.794;2024-02-21T13:42:42;2.45;;;0.90;;
60867;SDS011;46702;48.370;10.794;2024-02-21T13:45:08;1.23;;;0.63;;
60867;SDS011;46702;48.370;10.794;2024-02-21T13:47:34;1.27;;;1.15;;
60867;SDS011;46702;48.370;10.794;2024-02-21T13:50:04;0.85;;;0.60;;
60867;SDS011;46702;48.370;10.794;2024-02-21T13:52:31;1.80;;;0.45;;
60867;SDS011;46702;48.370;10.794;2024-02-21T13:54:56;0.57;;;0.57;;
60867;SDS011;46702;48.370;10.794;2024-02-21T13:57:22;0.70;;;0.70;;
60867;SDS011;46702;48.370;10.794;2024-02-21T13:59:48;0.57;;;0.50;;
60867;SDS011;46702;48.370;10.794;2024-02-21T14:02:14;0.82;;;0.82;;
60867;SDS011;46702;48.370;10.794;2024-02-21T14:04:39;1.40;;;0.90;;
60867;SDS011;46702;48.370;10.794;2024-02-21T14:07:05;0.30;;;0.30;;
60867;SDS011;46702;48.370;10.794;2024-02-21T14:09:30;0.40;;;0.40;;
60867;SDS011;46702;48.370;10.794;2024-02-21T14:11:58;1.25;;;0.70;;
60867;SDS011;46702;48.370;10.794;2024-02-21T14:14:23;0.60;;;0.60;;
60867;SDS011;46702;48.370;10.794;2024-02-21T14:16:49;0.70;;;0.70;;
60867;SDS011;46702;48.370;10.794;2024-02-21T14:19:15;1.30;;;0.70;;
60867;SDS011;46702;48.370;10.794;2024-02-21T14:21:40;0.85;;;0.85;;
60867;SDS011;46702;48.370;10.794;2024-02-21T14:24:06;0.57;;;0.57;;
60867;SDS011;46702;48.370;10.794;2024-02-21T14:26:32;0.88;;;0.57;;
60867;SDS011;46702;48.370;10.794;2024-02-21T14:28:58;0.63;;;0.60;;
60867;SDS011;46702;48.370;10.794;2024-02-21T14:31:24;1.33;;;0.60;;
60867;SDS011;46702;48.370;10.794;2024-02-21T14:33:53;0.60;;;0.60;;
60867;SDS011;46702;48.370;10.794;2024-02-21T14:36:18;1.67;;;0.60;;
60867;SDS011;46702;48.370;10.794;2024-02-21T14:38:44;0.70;;;0.70;;
60867;SDS011;46702;48.370;10.794;2024-02-21T14:41:10;0.93;;;0.88;;
60867;SDS011;46702;48.370;10.794;2024-02-21T14:43:37;0.50;;;0.50;;
60867;SDS011;46702;48.370;10.794;2024-02-21T14:46:03;0.57;;;0.57;;
60867;SDS011;46702;48.370;10.794;2024-02-21T14:48:30;1.35;;;0.63;;